MMGL/GDL METAR and TAF weather

Enter ICAO airport designator
Station Type Date Time Source
MMGL METAR 2019/11/22 00:51 UTC NOAA

MMGL 220051Z 25006KT 8SM FEW030 SCT300 21/14 A3018 RMK 8/501


Station Type Date Time Source
MMGL Decoded METAR 2019/11/22 00:51 UTC NOAA

Don Miguel / Guadalaj, Mexico (MMGL) 20-31N 103-19W
Nov 21, 2019 - 07:51 PM EST / 2019.11.22 0051 UTC
Wind: from the WSW (250 degrees) at 7 MPH (6 KT):0
Visibility: 8 mile(s):0
Sky conditions: partly cloudy
Temperature: 69 F (21 C)
Dew Point: 57 F (14 C)
Relative Humidity: 64%
Pressure (altimeter): 30.18 in. Hg (1022 hPa)
ob: MMGL 220051Z 25006KT 8SM FEW030 SCT300 21/14 A3018 RMK 8/501
cycle: 1

Station Type Date Time Source
MMGL TAF 2019/11/21 18:57 UTC NOAA

TAF TAF MMGL 211654Z 2118/2224 23010KT 5SM HZ SCT015 TX25/2121Z TN10/2212Z
FM212000 23012KT P6SM BKN025
FM220100 00000KT P6SM SCT250
FM221200 00000KT 2SM BR SKC
TEMPO 2212/2214 1SM BR
FM221600 00000KT 5SM HZ SCT025

Example: see airport list